createdAt,value
2018-04-07T00:00:55.597Z,100645.58
2018-04-07T00:02:01.430Z,100646.50
2018-04-07T00:03:07.408Z,100642.58
2018-04-07T00:04:13.153Z,100636.55
2018-04-07T00:05:18.915Z,100635.30
2018-04-07T00:06:24.691Z,100643.59
2018-04-07T00:07:31.211Z,100634.51
2018-04-07T00:08:36.981Z,100638.40
2018-04-07T00:09:43.480Z,100640.15
2018-04-07T00:10:49.228Z,100637.12
2018-04-07T00:11:55.021Z,100638.88
2018-04-07T00:13:01.575Z,100638.44
2018-04-07T00:14:08.848Z,100638.06
2018-04-07T00:15:14.352Z,100638.15
2018-04-07T00:16:20.088Z,100638.61
2018-04-07T00:17:25.834Z,100635.13
2018-04-07T00:18:31.745Z,100638.65
2018-04-07T00:19:38.308Z,100635.65
2018-04-07T00:20:44.148Z,100632.65
2018-04-07T00:21:50.648Z,100630.92
2018-04-07T00:22:56.176Z,100627.45
2018-04-07T00:24:01.923Z,100631.40
2018-04-07T00:25:07.452Z,100634.50
2018-04-07T00:26:13.194Z,100627.55
2018-04-07T00:27:18.704Z,100631.47
2018-04-07T00:28:24.461Z,100631.50
2018-04-07T00:29:30.209Z,100630.66
2018-04-07T00:30:35.987Z,100630.73
2018-04-07T00:31:42.500Z,100632.03
2018-04-07T00:32:48.245Z,100633.78
2018-04-07T00:33:53.996Z,100624.67
2018-04-07T00:34:59.732Z,100629.47
2018-04-07T00:36:05.507Z,100629.95
2018-04-07T00:37:11.256Z,100624.30
2018-04-07T00:38:16.998Z,100625.52
2018-04-07T00:39:22.744Z,100623.80
2018-04-07T00:40:28.255Z,100628.20
2018-04-07T00:41:34.029Z,100623.87
2018-04-07T00:42:40.311Z,100624.73
2018-04-07T00:43:46.416Z,100619.98
2018-04-07T00:44:52.165Z,100618.22
2018-04-07T00:45:58.725Z,100619.65
2018-04-07T00:47:04.282Z,100617.88
2018-04-07T00:48:10.851Z,100619.61
2018-04-07T00:49:16.384Z,100615.72
2018-04-07T00:50:22.160Z,100617.01
2018-04-07T00:51:27.908Z,100607.88
2018-04-07T00:52:50.329Z,100610.41
2018-04-07T00:53:56.080Z,100610.19
2018-04-07T00:55:01.827Z,100614.11
2018-04-07T00:56:07.573Z,100612.08
2018-04-07T00:57:13.304Z,100607.33
2018-04-07T00:58:18.812Z,100609.47
2018-04-07T00:59:24.564Z,100606.44
2018-04-07T01:00:30.472Z,100608.19
2018-04-07T01:01:36.980Z,100608.23
2018-04-07T01:02:42.811Z,100600.09
2018-04-07T01:03:48.576Z,100596.63
2018-04-07T01:04:54.317Z,100597.41
2018-04-07T01:05:59.832Z,100597.82
2018-04-07T01:07:05.578Z,100595.68
2018-04-07T01:08:11.520Z,100599.66
2018-04-07T01:09:17.291Z,100600.16
2018-04-07T01:10:23.041Z,100594.96
2018-04-07T01:11:28.794Z,100597.12
2018-04-07T01:12:33.973Z,100598.48
2018-04-07T01:13:39.716Z,100594.22
2018-04-07T01:14:45.488Z,100595.61
2018-04-07T01:15:52.002Z,100593.90
2018-04-07T01:16:57.416Z,100593.47
2018-04-07T01:18:03.924Z,100592.28
2018-04-07T01:19:09.677Z,100589.23
2018-04-07T01:20:15.518Z,100591.77
2018-04-07T01:21:21.264Z,100590.91
2018-04-07T01:22:27.000Z,100589.19
2018-04-07T01:23:32.756Z,100594.48
2018-04-07T01:24:38.518Z,100591.05
2018-04-07T01:25:45.062Z,100594.16
2018-04-07T01:26:51.587Z,100588.53
2018-04-07T01:27:57.318Z,100594.19
2018-04-07T01:29:03.082Z,100590.72
2018-04-07T01:30:08.818Z,100589.41
2018-04-07T01:31:14.598Z,100589.87
2018-04-07T01:32:21.099Z,100586.85
2018-04-07T01:33:26.845Z,100583.48
2018-04-07T01:34:32.589Z,100578.32
2018-04-07T01:35:38.336Z,100586.20
2018-04-07T01:36:44.106Z,100588.42
2018-04-07T01:37:50.624Z,100581.95
2018-04-07T01:38:56.364Z,100583.30
2018-04-07T01:40:01.976Z,100583.77
2018-04-07T01:41:08.469Z,100579.88
2018-04-07T01:42:14.005Z,100578.62
2018-04-07T01:43:19.768Z,100574.83
2018-04-07T01:44:25.543Z,100583.46
2018-04-07T01:45:32.243Z,100573.91
2018-04-07T01:46:38.012Z,100571.77
2018-04-07T01:47:43.791Z,100564.42
2018-04-07T01:48:50.306Z,100574.47
2018-04-07T01:49:56.052Z,100574.09
2018-04-07T01:51:01.803Z,100566.69
2018-04-07T01:52:07.560Z,100567.19
2018-04-07T01:53:13.326Z,100562.41
2018-04-07T01:54:19.836Z,100566.80
2018-04-07T01:55:25.578Z,100564.22
2018-04-07T01:56:31.322Z,100565.08
2018-04-07T01:57:37.064Z,100565.11
2018-04-07T01:58:42.829Z,100566.94
2018-04-07T01:59:49.341Z,100566.89
2018-04-07T02:00:55.086Z,100572.14
2018-04-07T02:02:00.833Z,100564.80
2018-04-07T02:03:06.583Z,100564.41
2018-04-07T02:04:12.345Z,100564.48
2018-04-07T02:05:18.088Z,100567.08
2018-04-07T02:06:23.837Z,100569.73
2018-04-07T02:07:30.350Z,100568.46
2018-04-07T02:08:36.092Z,100561.58
2018-04-07T02:09:41.864Z,100563.69
2018-04-07T02:10:47.613Z,100560.22
2018-04-07T02:11:53.357Z,100556.80
2018-04-07T02:12:58.765Z,100560.72
2018-04-07T02:14:04.513Z,100560.33
2018-04-07T02:15:10.287Z,100567.27
2018-04-07T02:16:16.787Z,100563.77
2018-04-07T02:17:22.529Z,100562.13
2018-04-07T02:18:28.280Z,100562.58
2018-04-07T02:19:34.030Z,100565.19
2018-04-07T02:20:39.806Z,100567.35
2018-04-07T02:21:46.313Z,100560.45
2018-04-07T02:22:52.060Z,100560.89
2018-04-07T02:23:57.800Z,100555.33
2018-04-07T02:25:03.620Z,100562.27
2018-04-07T02:26:09.385Z,100561.86
2018-04-07T02:27:15.136Z,100554.16
2018-04-07T02:28:20.886Z,100555.41
2018-04-07T02:29:26.654Z,100558.91
2018-04-07T02:30:33.174Z,100563.25
2018-04-07T02:31:38.936Z,100555.10
2018-04-07T02:32:44.693Z,100558.64
2018-04-07T02:33:50.205Z,100555.17
2018-04-07T02:34:55.954Z,100550.00
2018-04-07T02:36:01.697Z,100553.98
2018-04-07T02:37:07.460Z,100547.98
2018-04-07T02:38:13.988Z,100550.69
2018-04-07T02:39:19.741Z,100559.02
2018-04-07T02:40:25.484Z,100558.59
2018-04-07T02:41:32.736Z,100554.70
2018-04-07T02:42:38.542Z,100567.27
2018-04-07T02:43:45.254Z,100556.91
2018-04-07T02:44:51.005Z,100562.23
2018-04-07T02:45:56.774Z,100560.52
2018-04-07T02:47:03.287Z,100558.05
2018-04-07T02:48:09.052Z,100555.50
2018-04-07T02:49:14.815Z,100556.37
2018-04-07T02:50:21.589Z,100560.71
2018-04-07T02:51:27.500Z,100555.97
2018-04-07T02:52:33.266Z,100553.84
2018-04-07T02:53:39.792Z,100557.73
2018-04-07T02:54:45.547Z,100556.11
2018-04-07T02:55:52.079Z,100557.86
2018-04-07T02:56:57.821Z,100557.41
2018-04-07T02:58:03.569Z,100556.53
2018-04-07T02:59:09.345Z,100561.70
2018-04-07T03:00:15.855Z,100560.95
2018-04-07T03:01:21.597Z,100558.34
2018-04-07T03:02:27.335Z,100549.68
2018-04-07T03:03:33.075Z,100554.41
2018-04-07T03:04:38.849Z,100556.63
2018-04-07T03:05:44.612Z,100560.55
2018-04-07T03:06:51.121Z,100555.37
2018-04-07T03:07:56.868Z,100555.44
2018-04-07T03:09:02.617Z,100556.73
2018-04-07T03:10:08.381Z,100553.34
2018-04-07T03:11:14.896Z,100555.56
2018-04-07T03:12:20.645Z,100555.16
2018-04-07T03:13:26.181Z,100549.54
2018-04-07T03:14:31.937Z,100548.70
2018-04-07T03:15:37.702Z,100549.13
2018-04-07T03:16:43.455Z,100549.13
2018-04-07T03:17:49.980Z,100548.77
2018-04-07T03:18:55.725Z,100550.48
2018-04-07T03:20:01.474Z,100546.97
2018-04-07T03:21:07.268Z,100549.54
2018-04-07T03:22:13.028Z,100544.31
2018-04-07T03:23:18.773Z,100541.72
2018-04-07T03:24:24.524Z,100539.55
2018-04-07T03:25:30.260Z,100540.47
2018-04-07T03:26:36.066Z,100540.97
2018-04-07T03:27:42.590Z,100538.75
2018-04-07T03:28:48.342Z,100545.29
2018-04-07T03:29:54.090Z,100540.59
2018-04-07T03:31:00.603Z,100540.65
2018-04-07T03:32:06.376Z,100540.69
2018-04-07T03:33:12.121Z,100537.20
2018-04-07T03:34:17.897Z,100539.82
2018-04-07T03:35:23.671Z,100536.33
2018-04-07T03:36:29.424Z,100530.70
2018-04-07T03:37:35.184Z,100533.33
2018-04-07T03:38:40.925Z,100529.41
2018-04-07T03:39:47.945Z,100532.47
2018-04-07T03:40:53.685Z,100527.67
2018-04-07T03:41:59.189Z,100530.28
2018-04-07T03:43:05.516Z,100527.72
2018-04-07T03:44:11.247Z,100524.27
2018-04-07T03:45:17.000Z,100523.48
2018-04-07T03:46:22.496Z,100526.88
2018-04-07T03:47:28.241Z,100527.74
2018-04-07T03:48:33.819Z,100523.05
2018-04-07T03:49:39.569Z,100532.17
2018-04-07T03:50:45.082Z,100529.69
2018-04-07T03:51:51.088Z,100522.32
2018-04-07T03:52:56.626Z,100527.11
2018-04-07T03:54:02.401Z,100523.70
2018-04-07T03:55:08.134Z,100522.84
2018-04-07T03:56:13.879Z,100523.22
2018-04-07T03:57:19.631Z,100523.22
2018-04-07T03:58:25.372Z,100524.58
2018-04-07T03:59:31.135Z,100523.27
2018-04-07T04:00:36.659Z,100526.30
2018-04-07T04:01:42.402Z,100526.34
2018-04-07T04:02:49.862Z,100516.36
2018-04-07T04:03:55.372Z,100522.86
2018-04-07T04:05:00.905Z,100524.19
2018-04-07T04:06:06.656Z,100520.30
2018-04-07T04:07:12.388Z,100518.22
2018-04-07T04:08:18.125Z,100516.50
2018-04-07T04:09:23.902Z,100517.83
2018-04-07T04:10:29.676Z,100513.48
2018-04-07T04:11:35.958Z,100510.45
2018-04-07T04:12:41.708Z,100517.38
2018-04-07T04:13:47.448Z,100508.29
2018-04-07T04:14:53.183Z,100509.16
2018-04-07T04:15:58.947Z,100509.60
2018-04-07T04:17:04.705Z,100505.25
2018-04-07T04:18:10.444Z,100512.61
2018-04-07T04:19:16.189Z,100511.75
2018-04-07T04:20:21.934Z,100507.08
2018-04-07T04:21:27.740Z,100510.11
2018-04-07T04:22:33.472Z,100506.64
2018-04-07T04:23:39.229Z,100509.71
2018-04-07T04:24:44.986Z,100511.00
2018-04-07T04:25:50.731Z,100503.67
2018-04-07T04:26:56.498Z,100505.94
2018-04-07T04:28:02.241Z,100507.66
2018-04-07T04:29:07.978Z,100509.83
2018-04-07T04:30:13.722Z,100514.13
2018-04-07T04:31:19.466Z,100511.54
2018-04-07T04:32:25.228Z,100505.95
2018-04-07T04:33:31.747Z,100513.36
2018-04-07T04:34:37.488Z,100517.64
2018-04-07T04:35:43.329Z,100512.95
2018-04-07T04:36:49.079Z,100505.16
2018-04-07T04:37:54.846Z,100509.84
2018-04-07T04:39:00.363Z,100509.47
2018-04-07T04:40:06.248Z,100506.88
2018-04-07T04:41:12.534Z,100506.43
2018-04-07T04:42:18.308Z,100513.30
2018-04-07T04:43:24.076Z,100508.97
2018-04-07T04:44:30.592Z,100505.09
2018-04-07T04:45:36.362Z,100508.98
2018-04-07T04:46:42.972Z,100508.11
2018-04-07T04:47:48.769Z,100512.44
2018-04-07T04:48:55.668Z,100500.75
2018-04-07T04:50:02.377Z,100506.91
2018-04-07T04:51:08.151Z,100503.03
2018-04-07T04:52:14.017Z,100503.45
2018-04-07T04:53:20.769Z,100506.45
2018-04-07T04:54:26.592Z,100504.30
2018-04-07T04:55:32.943Z,100502.56
2018-04-07T04:56:39.277Z,100504.64
2018-04-07T04:57:45.072Z,100501.16
2018-04-07T04:58:50.828Z,100508.95
2018-04-07T04:59:56.606Z,100505.92
2018-04-07T05:01:02.353Z,100506.75
2018-04-07T05:02:08.104Z,100509.30
2018-04-07T05:03:13.933Z,100506.32
2018-04-07T05:04:19.673Z,100505.83
2018-04-07T05:05:25.447Z,100508.48
2018-04-07T05:06:32.061Z,100500.64
2018-04-07T05:07:37.805Z,100497.98
2018-04-07T05:08:43.564Z,100498.78
2018-04-07T05:09:50.106Z,100497.45
2018-04-07T05:10:55.881Z,100497.45
2018-04-07T05:12:01.628Z,100494.41
2018-04-07T05:13:08.134Z,100501.31
2018-04-07T05:14:13.949Z,100492.61
2018-04-07T05:15:20.216Z,100493.53
2018-04-07T05:16:25.729Z,100493.12
2018-04-07T05:17:31.499Z,100494.89
2018-04-07T05:18:37.253Z,100499.66
2018-04-07T05:19:42.765Z,100498.77
2018-04-07T05:20:48.512Z,100493.14
2018-04-07T05:21:54.268Z,100497.00
2018-04-07T05:23:00.031Z,100499.59
2018-04-07T05:24:05.784Z,100500.38
2018-04-07T05:25:11.528Z,100492.91
2018-04-07T05:26:17.306Z,100496.34
2018-04-07T05:27:23.845Z,100496.77
2018-04-07T05:28:29.606Z,100494.96
2018-04-07T05:29:35.352Z,100497.50
2018-04-07T05:30:41.102Z,100498.73
2018-04-07T05:31:46.868Z,100497.39
2018-04-07T05:32:52.642Z,100496.08
2018-04-07T05:33:58.472Z,100501.19
2018-04-07T05:35:04.244Z,100503.75
2018-04-07T05:36:10.758Z,100495.92
2018-04-07T05:37:16.494Z,100496.27
2018-04-07T05:38:22.021Z,100495.36
2018-04-07T05:39:27.774Z,100494.45
2018-04-07T05:40:33.509Z,100493.10
2018-04-07T05:41:39.264Z,100491.70
2018-04-07T05:42:45.016Z,100498.96
2018-04-07T05:43:50.777Z,100495.88
2018-04-07T05:44:57.290Z,100493.69
2018-04-07T05:46:02.716Z,100491.85
2018-04-07T05:47:08.468Z,100493.87
2018-04-07T05:48:14.198Z,100492.55
2018-04-07T05:49:19.988Z,100495.98
2018-04-07T05:50:26.525Z,100495.05
2018-04-07T05:51:32.293Z,100494.94
2018-04-07T05:52:38.032Z,100491.80
2018-04-07T05:53:43.794Z,100490.06
2018-04-07T05:54:50.322Z,100493.92
2018-04-07T05:55:56.069Z,100489.89
2018-04-07T05:57:01.846Z,100498.89
2018-04-07T05:58:07.585Z,100493.19
2018-04-07T05:59:13.342Z,100489.19
2018-04-07T06:00:19.121Z,100490.39
2018-04-07T06:01:24.877Z,100495.95
2018-04-07T06:02:32.131Z,100488.05
2018-04-07T06:03:37.883Z,100483.80
2018-04-07T06:04:43.620Z,100489.42
2018-04-07T06:05:49.392Z,100485.44
2018-04-07T06:06:55.907Z,100485.44
2018-04-07T06:08:01.658Z,100491.03
2018-04-07T06:09:08.283Z,100490.08
2018-04-07T06:10:14.027Z,100487.89
2018-04-07T06:11:19.805Z,100489.91
2018-04-07T06:12:25.565Z,100490.22
2018-04-07T06:13:32.093Z,100490.62
2018-04-07T06:14:37.836Z,100490.05
2018-04-07T06:15:43.640Z,100489.42
2018-04-07T06:16:50.172Z,100486.80
2018-04-07T06:17:55.919Z,100485.47
2018-04-07T06:19:02.216Z,100490.26
2018-04-07T06:20:07.120Z,100486.33
2018-04-07T06:21:12.629Z,100487.95
2018-04-07T06:22:19.178Z,100491.72
2018-04-07T06:23:24.937Z,100491.64
2018-04-07T06:24:32.173Z,100488.16
2018-04-07T06:25:37.912Z,100485.87
2018-04-07T06:26:43.664Z,100486.17
2018-04-07T06:27:49.428Z,100482.59
2018-04-07T06:28:55.179Z,100480.84
2018-04-07T06:30:01.690Z,100479.94
2018-04-07T06:31:07.436Z,100481.08
2018-04-07T06:32:13.202Z,100483.57
2018-04-07T06:33:18.960Z,100477.58
2018-04-07T06:34:24.720Z,100476.11
2018-04-07T06:35:30.472Z,100484.78
2018-04-07T06:36:36.033Z,100474.31
2018-04-07T06:37:41.784Z,100473.38
2018-04-07T06:38:47.563Z,100475.88
2018-04-07T06:39:53.319Z,100480.48
2018-04-07T06:40:59.833Z,100482.08
2018-04-07T06:42:05.594Z,100482.47
2018-04-07T06:43:11.357Z,100472.01
2018-04-07T06:44:17.976Z,100481.05
2018-04-07T06:45:23.709Z,100477.05
2018-04-07T06:46:29.231Z,100476.05
2018-04-07T06:47:34.981Z,100478.11
2018-04-07T06:48:40.729Z,100476.25
2018-04-07T06:49:46.520Z,100475.22
2018-04-07T06:50:53.029Z,100472.42
2018-04-07T06:51:58.787Z,100473.53
2018-04-07T06:53:04.537Z,100468.61
2018-04-07T06:54:10.299Z,100468.41
2018-04-07T06:55:16.830Z,100466.98
2018-04-07T06:56:22.601Z,100472.41
2018-04-07T06:57:29.116Z,100469.20
2018-04-07T06:58:35.087Z,100469.46
2018-04-07T06:59:40.863Z,100465.44
2018-04-07T07:00:47.415Z,100470.44
2018-04-07T07:01:53.947Z,100464.14
2018-04-07T07:02:59.682Z,100461.78
2018-04-07T07:04:05.446Z,100461.08
2018-04-07T07:05:11.740Z,100461.40
2018-04-07T07:06:17.558Z,100457.77
2018-04-07T07:07:23.312Z,100460.19
2018-04-07T07:08:29.101Z,100454.67
2018-04-07T07:09:34.844Z,100457.47
2018-04-07T07:10:40.588Z,100460.56
2018-04-07T07:11:46.194Z,100456.41
2018-04-07T07:12:51.948Z,100458.41
2018-04-07T07:13:57.684Z,100455.06
2018-04-07T07:15:03.457Z,100459.54
2018-04-07T07:16:09.217Z,100445.30
2018-04-07T07:17:15.749Z,100442.81
2018-04-07T07:18:22.829Z,100438.39
2018-04-07T07:19:28.772Z,100437.14
2018-04-07T07:20:34.529Z,100436.97
2018-04-07T07:21:40.843Z,100434.31
2018-04-07T07:22:46.652Z,100429.75
2018-04-07T07:23:52.535Z,100426.73
2018-04-07T07:24:58.064Z,100424.45
2018-04-07T07:26:03.816Z,100427.41
2018-04-07T07:27:09.338Z,100426.05
2018-04-07T07:28:15.127Z,100427.35
2018-04-07T07:29:21.632Z,100416.72
2018-04-07T07:30:27.381Z,100420.73
2018-04-07T07:31:33.141Z,100424.20
2018-04-07T07:32:38.894Z,100415.90
2018-04-07T07:33:44.449Z,100417.05
2018-04-07T07:34:50.971Z,100421.94
2018-04-07T07:35:56.714Z,100421.42
2018-04-07T07:37:02.524Z,100413.86
2018-04-07T07:38:08.276Z,100415.39
2018-04-07T07:39:14.052Z,100412.08
2018-04-07T07:40:19.817Z,100408.98
2018-04-07T07:41:26.377Z,100416.48
2018-04-07T07:42:32.117Z,100410.11
2018-04-07T07:43:38.652Z,100411.97
2018-04-07T07:44:44.423Z,100409.56
2018-04-07T07:45:50.936Z,100408.05
2018-04-07T07:46:56.694Z,100412.48
2018-04-07T07:48:02.450Z,100400.34
2018-04-07T07:49:08.214Z,100400.02
2018-04-07T07:50:14.758Z,100402.38
2018-04-07T07:51:20.514Z,100401.77
2018-04-07T07:52:27.042Z,100399.59
2018-04-07T07:53:32.789Z,100395.27
2018-04-07T07:54:40.101Z,100397.57
2018-04-07T07:55:46.644Z,100384.09
2018-04-07T07:56:53.168Z,100387.69
2018-04-07T07:57:58.917Z,100384.95
2018-04-07T07:59:04.673Z,100389.21
2018-04-07T08:00:10.437Z,100389.14
2018-04-07T08:01:16.981Z,100382.88
2018-04-07T08:02:22.740Z,100384.11
2018-04-07T08:03:29.263Z,100384.66
2018-04-07T08:04:34.867Z,100388.29
2018-04-07T08:05:40.626Z,100384.60
2018-04-07T08:06:46.410Z,100378.95
2018-04-07T08:07:52.151Z,100377.80
2018-04-07T08:08:58.683Z,100379.06
2018-04-07T08:10:04.195Z,100374.12
2018-04-07T08:11:09.967Z,100378.59
2018-04-07T08:12:15.525Z,100376.37
2018-04-07T08:13:22.043Z,100377.55
2018-04-07T08:14:27.811Z,100373.38
2018-04-07T08:15:33.562Z,100379.33
2018-04-07T08:16:40.092Z,100378.07
2018-04-07T08:17:46.105Z,100382.98
2018-04-07T08:18:51.860Z,100373.45
2018-04-07T08:19:57.622Z,100374.20
2018-04-07T08:21:03.385Z,100382.84
2018-04-07T08:22:10.325Z,100379.26
2018-04-07T08:23:16.268Z,100376.60
2018-04-07T08:24:22.831Z,100376.67
2018-04-07T08:25:28.791Z,100368.96
2018-04-07T08:26:34.551Z,100372.70
2018-04-07T08:27:41.117Z,100374.39
2018-04-07T08:28:48.713Z,100366.11
2018-04-07T08:29:54.508Z,100367.59
2018-04-07T08:31:00.041Z,100371.86
2018-04-07T08:32:05.262Z,100372.27
2018-04-07T08:33:11.216Z,100370.30
2018-04-07T08:34:16.995Z,100369.23
2018-04-07T08:35:22.753Z,100374.98
2018-04-07T08:36:28.496Z,100376.07
2018-04-07T08:37:34.271Z,100371.81
2018-04-07T08:38:40.234Z,100367.50
2018-04-07T08:39:45.840Z,100372.19
2018-04-07T08:40:52.149Z,100356.41
2018-04-07T08:41:58.249Z,100369.40
2018-04-07T08:43:04.107Z,100372.75
2018-04-07T08:44:09.969Z,100364.43
2018-04-07T08:45:15.737Z,100369.19
2018-04-07T08:46:21.499Z,100371.96
2018-04-07T08:47:27.324Z,100374.86
2018-04-07T08:48:32.851Z,100374.62
2018-04-07T08:49:38.600Z,100371.52
2018-04-07T08:50:44.422Z,100377.55
2018-04-07T08:51:50.185Z,100373.66
2018-04-07T08:52:55.995Z,100374.58
2018-04-07T08:54:01.606Z,100372.94
2018-04-07T08:55:10.059Z,100371.41
2018-04-07T08:56:15.955Z,100367.08
2018-04-07T08:57:22.138Z,100367.44
2018-04-07T08:58:28.099Z,100376.59
2018-04-07T08:59:34.098Z,100371.23
2018-04-07T09:00:41.086Z,100367.72
2018-04-07T09:01:47.701Z,100368.16
2018-04-07T09:02:53.693Z,100372.15
2018-04-07T09:04:00.312Z,100375.21
2018-04-07T09:05:07.733Z,100369.52
2018-04-07T09:06:14.280Z,100375.28
2018-04-07T09:07:20.155Z,100374.57
2018-04-07T09:08:26.668Z,100375.49
2018-04-07T09:09:33.195Z,100372.81
2018-04-07T09:10:38.988Z,100371.36
2018-04-07T09:11:44.882Z,100383.05
2018-04-07T09:12:50.681Z,100375.06
2018-04-07T09:13:57.205Z,100373.00
2018-04-07T09:15:02.956Z,100379.97
2018-04-07T09:16:08.920Z,100369.97
2018-04-07T09:17:15.452Z,100371.20
2018-04-07T09:18:21.322Z,100374.71
2018-04-07T09:19:27.151Z,100375.34
2018-04-07T09:20:33.115Z,100382.58
2018-04-07T09:21:38.911Z,100374.67
2018-04-07T09:22:44.854Z,100373.42
2018-04-07T09:23:50.378Z,100374.73
2018-04-07T09:24:56.353Z,100375.53
2018-04-07T09:26:02.097Z,100370.58
2018-04-07T09:27:07.846Z,100371.08
2018-04-07T09:28:13.638Z,100370.73
2018-04-07T09:29:20.505Z,100362.61
2018-04-07T09:30:26.299Z,100360.89
2018-04-07T09:31:32.091Z,100363.30
2018-04-07T09:32:37.904Z,100367.98
2018-04-07T09:33:44.659Z,100362.20
2018-04-07T09:34:50.544Z,100362.55
2018-04-07T09:35:56.441Z,100367.95
2018-04-07T09:37:02.225Z,100362.09
2018-04-07T09:38:08.225Z,100365.53
2018-04-07T09:39:14.006Z,100365.33
2018-04-07T09:40:20.829Z,100361.42
2018-04-07T09:41:26.620Z,100367.66
2018-04-07T09:42:33.192Z,100365.56
2018-04-07T09:43:38.721Z,100366.72
2018-04-07T09:44:45.238Z,100360.11
2018-04-07T09:45:51.032Z,100354.02
2018-04-07T09:46:56.803Z,100354.69
2018-04-07T09:48:02.581Z,100350.36
2018-04-07T09:49:09.276Z,100358.28
2018-04-07T09:50:15.915Z,100352.30
2018-04-07T09:51:22.468Z,100351.24
2018-04-07T09:52:29.034Z,100348.66
2018-04-07T09:53:35.580Z,100354.77
2018-04-07T09:54:41.434Z,100352.99
2018-04-07T09:55:47.507Z,100350.25
2018-04-07T09:56:54.046Z,100351.59
2018-04-07T09:58:00.677Z,100350.05
2018-04-07T09:59:07.935Z,100350.50
2018-04-07T10:00:14.257Z,100351.94
2018-04-07T10:01:19.868Z,100351.11
2018-04-07T10:02:25.581Z,100348.13
2018-04-07T10:03:31.528Z,100343.61
2018-04-07T10:04:37.286Z,100350.68
2018-04-07T10:05:43.816Z,100345.66
2018-04-07T10:06:49.658Z,100344.52
2018-04-07T10:07:56.508Z,100339.09
2018-04-07T10:09:02.076Z,100338.09
2018-04-07T10:10:08.494Z,100343.39
2018-04-07T10:11:14.059Z,100336.33
2018-04-07T10:12:19.820Z,100336.06
2018-04-07T10:13:26.367Z,100333.55
2018-04-07T10:14:32.936Z,100332.36
2018-04-07T10:15:38.742Z,100340.27
2018-04-07T10:16:44.621Z,100333.17
2018-04-07T10:17:50.457Z,100334.66
2018-04-07T10:18:57.085Z,100331.11
2018-04-07T10:20:03.393Z,100331.98
2018-04-07T10:21:11.147Z,100326.63
2018-04-07T10:22:16.947Z,100330.56
2018-04-07T10:23:24.643Z,100330.06
2018-04-07T10:24:31.440Z,100327.50
2018-04-07T10:25:37.245Z,100325.00
2018-04-07T10:26:43.451Z,100322.63
2018-04-07T10:27:49.276Z,100321.94
2018-04-07T10:28:55.361Z,100319.45
2018-04-07T10:30:01.145Z,100317.56
2018-04-07T10:31:06.918Z,100317.36
2018-04-07T10:32:12.688Z,100318.55
2018-04-07T10:33:19.299Z,100320.80
2018-04-07T10:34:26.281Z,100313.96
2018-04-07T10:35:32.083Z,100314.66
2018-04-07T10:36:37.852Z,100312.94
2018-04-07T10:37:43.345Z,100308.13
2018-04-07T10:38:51.568Z,100315.19
2018-04-07T10:39:57.383Z,100319.52
2018-04-07T10:41:03.178Z,100323.14
2018-04-07T10:42:08.968Z,100315.39
2018-04-07T10:43:14.733Z,100316.94
2018-04-07T10:44:21.296Z,100313.29
2018-04-07T10:45:27.117Z,100310.31
2018-04-07T10:46:32.919Z,100309.24
2018-04-07T10:47:38.672Z,100308.86
2018-04-07T10:48:44.437Z,100302.77
2018-04-07T10:49:50.280Z,100305.95
2018-04-07T10:50:56.029Z,100304.94
2018-04-07T10:52:02.602Z,100305.83
2018-04-07T10:53:09.149Z,100301.20
2018-04-07T10:54:14.900Z,100301.28
2018-04-07T10:55:21.486Z,100306.92
2018-04-07T10:56:28.107Z,100301.67
2018-04-07T10:57:33.893Z,100305.63
2018-04-07T10:58:39.664Z,100307.83
2018-04-07T10:59:45.176Z,100307.07
2018-04-07T11:00:50.950Z,100299.42
2018-04-07T11:01:56.706Z,100305.24
2018-04-07T11:03:02.490Z,100297.78
2018-04-07T11:04:08.273Z,100299.51
2018-04-07T11:05:13.791Z,100297.86
2018-04-07T11:06:19.580Z,100295.89
2018-04-07T11:07:26.190Z,100293.16
2018-04-07T11:08:33.172Z,100291.16
2018-04-07T11:09:38.974Z,100290.98
2018-04-07T11:10:46.809Z,100289.89
2018-04-07T11:11:52.722Z,100287.23
2018-04-07T11:12:58.494Z,100287.81
2018-04-07T11:14:04.620Z,100284.64
2018-04-07T11:15:10.943Z,100282.89
2018-04-07T11:16:16.709Z,100285.40
2018-04-07T11:17:23.254Z,100276.34
2018-04-07T11:18:29.186Z,100282.59
2018-04-07T11:19:34.960Z,100272.91
2018-04-07T11:20:40.724Z,100279.78
2018-04-07T11:21:46.467Z,100273.38
2018-04-07T11:22:52.240Z,100272.71
2018-04-07T11:23:58.001Z,100278.18
2018-04-07T11:25:03.777Z,100276.20
2018-04-07T11:26:09.343Z,100271.22
2018-04-07T11:27:14.765Z,100264.25
2018-04-07T11:28:20.621Z,100274.89
2018-04-07T11:29:26.360Z,100265.50
2018-04-07T11:30:32.239Z,100266.05
2018-04-07T11:31:38.760Z,100264.94
2018-04-07T11:32:44.549Z,100265.09
2018-04-07T11:33:50.330Z,100255.95
2018-04-07T11:34:56.304Z,100260.81
2018-04-07T11:36:02.089Z,100259.43
2018-04-07T11:37:08.964Z,100258.73
2018-04-07T11:38:15.481Z,100257.70
2018-04-07T11:39:21.247Z,100257.59
2018-04-07T11:40:27.829Z,100262.00
2018-04-07T11:41:33.622Z,100258.97
2018-04-07T11:42:39.373Z,100252.75
2018-04-07T11:43:45.134Z,100248.88
2018-04-07T11:44:51.758Z,100251.41
2018-04-07T11:45:57.564Z,100249.23
2018-04-07T11:47:03.441Z,100244.14
2018-04-07T11:48:09.216Z,100248.58
2018-04-07T11:49:14.984Z,100249.80
2018-04-07T11:50:21.541Z,100240.72
2018-04-07T11:51:28.108Z,100237.14
2018-04-07T11:52:34.646Z,100235.55
2018-04-07T11:53:40.415Z,100236.96
2018-04-07T11:54:46.173Z,100234.84
2018-04-07T11:55:51.956Z,100237.69
2018-04-07T11:56:59.242Z,100231.59
2018-04-07T11:58:05.908Z,100230.02
2018-04-07T11:59:11.670Z,100225.59
2018-04-07T12:00:17.490Z,100225.44
2018-04-07T12:01:23.249Z,100226.40
2018-04-07T12:02:29.790Z,100222.72
2018-04-07T12:03:35.789Z,100216.50
2018-04-07T12:04:41.564Z,100220.91
2018-04-07T12:05:47.427Z,100220.94
2018-04-07T12:06:54.175Z,100216.11
2018-04-07T12:08:01.478Z,100214.88
2018-04-07T12:09:07.926Z,100212.30
2018-04-07T12:10:14.537Z,100209.92
2018-04-07T12:11:20.321Z,100214.17
2018-04-07T12:12:26.283Z,100213.39
2018-04-07T12:13:32.861Z,100216.13
2018-04-07T12:14:38.672Z,100209.76
2018-04-07T12:15:45.471Z,100204.32
2018-04-07T12:16:51.017Z,100200.83
2018-04-07T12:17:57.057Z,100204.83
2018-04-07T12:19:02.944Z,100207.93
2018-04-07T12:20:08.924Z,100207.11
2018-04-07T12:21:16.230Z,100205.31
2018-04-07T12:22:23.786Z,100199.05
2018-04-07T12:23:31.298Z,100200.33
2018-04-07T12:24:38.064Z,100195.86
2018-04-07T12:25:44.017Z,100198.38
2018-04-07T12:26:50.853Z,100192.17
2018-04-07T12:27:56.857Z,100191.81
2018-04-07T12:29:03.894Z,100195.27
2018-04-07T12:30:10.036Z,100193.59
2018-04-07T12:31:17.501Z,100188.35
2018-04-07T12:32:24.043Z,100184.86
2018-04-07T12:33:30.759Z,100184.88